Terminal Aerodrome Forecast
Issued by NWS

Home | Current Version | Previous Version | Text Only | Print | Product List | Glossary On
Versions: 1 2 3 4 5 6 7 8 9 10 11 12 13 14 15 16 17 18 19 20 21 22
000
FTUS44 KBMX 012336
TAFEET
TAF
KEET 012336Z 0200/0224 14003KT P6SM BKN200
      TEMPO 0210/0214 3SM BR BKN010
     FM021500 18012G18KT P6SM SCT025 BKN040=

USA.gov is the U.S. government's official web portal to all federal, state and local government web resources and services.